createdAt,value
2018-07-02T00:02:00.727Z,16.24
2018-07-02T00:04:27.655Z,16.24
2018-07-02T00:07:06.037Z,16.13
2018-07-02T00:09:32.898Z,16.14
2018-07-02T00:11:59.934Z,16.15
2018-07-02T00:14:26.783Z,16.11
2018-07-02T00:16:53.648Z,16.14
2018-07-02T00:19:20.658Z,16.05
2018-07-02T00:21:47.586Z,16.10
2018-07-02T00:24:14.606Z,16.36
2018-07-02T00:26:41.471Z,16.16
2018-07-02T00:29:08.323Z,16.13
2018-07-02T00:31:35.199Z,16.10
2018-07-02T00:34:03.079Z,16.15
2018-07-02T00:36:29.972Z,16.07
2018-07-02T00:38:56.835Z,16.00
2018-07-02T00:41:23.680Z,16.16
2018-07-02T00:43:50.535Z,15.96
2018-07-02T00:46:17.419Z,15.98
2018-07-02T00:48:44.290Z,15.85
2018-07-02T00:51:11.135Z,15.93
2018-07-02T00:53:37.999Z,15.97
2018-07-02T00:56:05.026Z,15.82
2018-07-02T00:58:31.906Z,15.82
2018-07-02T01:00:58.758Z,15.86
2018-07-02T01:03:25.627Z,15.72
2018-07-02T01:05:52.487Z,15.73
2018-07-02T01:08:19.347Z,15.76
2018-07-02T01:10:46.515Z,15.75
2018-07-02T01:13:13.368Z,15.75
2018-07-02T01:15:40.224Z,15.79
2018-07-02T01:18:07.083Z,15.76
2018-07-02T01:20:36.003Z,15.73
2018-07-02T01:23:02.867Z,15.72
2018-07-02T01:25:29.718Z,15.60
2018-07-02T01:27:56.562Z,15.57
2018-07-02T01:30:23.430Z,15.63
2018-07-02T01:32:50.300Z,15.59
2018-07-02T01:35:17.158Z,15.51
2018-07-02T01:37:44.014Z,15.45
2018-07-02T01:40:10.902Z,15.49
2018-07-02T01:42:37.760Z,15.46
2018-07-02T01:45:04.711Z,15.57
2018-07-02T01:47:31.583Z,15.63
2018-07-02T01:49:58.450Z,15.33
2018-07-02T01:52:25.306Z,15.27
2018-07-02T01:54:52.155Z,15.26
2018-07-02T01:57:19.015Z,15.14
2018-07-02T01:59:45.869Z,15.14
2018-07-02T02:02:12.798Z,15.15
2018-07-02T02:04:39.658Z,15.07
2018-07-02T02:07:06.527Z,15.05
2018-07-02T02:09:33.387Z,15.09
2018-07-02T02:12:00.246Z,15.11
2018-07-02T02:14:27.131Z,15.10
2018-07-02T02:16:53.995Z,15.06
2018-07-02T02:19:20.863Z,14.98
2018-07-02T02:21:47.722Z,14.96
2018-07-02T02:24:14.576Z,15.01
2018-07-02T02:26:41.427Z,14.96
2018-07-02T02:29:08.279Z,14.88
2018-07-02T02:31:35.155Z,14.80
2018-07-02T02:34:02.011Z,14.80
2018-07-02T02:36:28.866Z,14.80
2018-07-02T02:38:55.829Z,14.65
2018-07-02T02:41:22.691Z,14.63
2018-07-02T02:43:49.551Z,14.56
2018-07-02T02:46:16.439Z,14.50
2018-07-02T02:48:43.295Z,14.66
2018-07-02T02:51:12.223Z,14.48
2018-07-02T02:53:39.081Z,14.35
2018-07-02T02:56:05.947Z,14.33
2018-07-02T02:58:32.810Z,14.26
2018-07-02T03:00:59.659Z,14.20
2018-07-02T03:03:26.527Z,14.21
2018-07-02T03:05:53.379Z,14.23
2018-07-02T03:08:20.240Z,14.02
2018-07-02T03:10:47.115Z,14.00
2018-07-02T03:13:13.976Z,13.96
2018-07-02T03:15:40.835Z,13.90
2018-07-02T03:18:07.728Z,14.07
2018-07-02T03:20:34.600Z,14.13
2018-07-02T03:23:01.455Z,13.96
2018-07-02T03:25:28.299Z,13.91
2018-07-02T03:27:55.155Z,13.88
2018-07-02T03:30:22.016Z,13.87
2018-07-02T03:32:48.875Z,13.79
2018-07-02T03:35:15.751Z,13.68
2018-07-02T03:37:42.656Z,13.69
2018-07-02T03:40:09.531Z,13.68
2018-07-02T03:42:36.396Z,14.01
2018-07-02T03:45:03.247Z,14.38
2018-07-02T03:47:30.106Z,14.72
2018-07-02T03:49:56.978Z,14.99
2018-07-02T03:52:23.843Z,15.14
2018-07-02T03:54:50.691Z,15.49
2018-07-02T03:57:17.555Z,15.53
2018-07-02T03:59:44.416Z,15.77
2018-07-02T04:02:11.315Z,15.97
2018-07-02T04:04:38.221Z,16.43
2018-07-02T04:07:05.084Z,16.60
2018-07-02T04:09:31.946Z,16.80
2018-07-02T04:11:58.898Z,16.92
2018-07-02T04:14:25.778Z,16.92
2018-07-02T04:16:52.591Z,17.07
2018-07-02T04:19:19.557Z,17.30
2018-07-02T04:21:47.227Z,17.06
2018-07-02T04:24:14.174Z,17.33
2018-07-02T04:26:41.730Z,17.24
2018-07-02T04:29:08.761Z,17.48
2018-07-02T04:31:36.696Z,17.65
2018-07-02T04:34:03.814Z,17.46
2018-07-02T04:36:30.819Z,17.92
2018-07-02T04:38:57.711Z,18.28
2018-07-02T04:41:24.712Z,18.27
2018-07-02T04:43:51.756Z,18.09
2018-07-02T04:46:18.643Z,18.29
2018-07-02T04:48:45.515Z,18.27
2018-07-02T04:51:12.424Z,18.12
2018-07-02T04:53:39.404Z,18.09
2018-07-02T04:56:06.295Z,17.89
2018-07-02T04:58:33.171Z,18.47
2018-07-02T05:01:00.055Z,18.36
2018-07-02T05:03:26.914Z,18.35
2018-07-02T05:05:53.790Z,18.36
2018-07-02T05:08:20.676Z,17.99
2018-07-02T05:10:47.547Z,17.77
2018-07-02T05:13:14.427Z,17.72
2018-07-02T05:15:41.322Z,17.79
2018-07-02T05:18:08.191Z,17.84
2018-07-02T05:20:35.092Z,17.73
2018-07-02T05:23:02.002Z,17.83
2018-07-02T05:25:28.876Z,17.90
2018-07-02T05:27:55.747Z,17.96
2018-07-02T05:30:22.635Z,17.90
2018-07-02T05:32:49.511Z,17.61
2018-07-02T05:35:16.393Z,18.04
2018-07-02T05:37:43.272Z,18.31
2018-07-02T05:40:10.281Z,18.29
2018-07-02T05:42:37.047Z,18.26
2018-07-02T05:45:03.927Z,17.92
2018-07-02T05:47:30.803Z,18.18
2018-07-02T05:49:57.678Z,18.37
2018-07-02T05:52:24.563Z,18.83
2018-07-02T05:54:51.441Z,18.52
2018-07-02T05:57:18.311Z,18.61
2018-07-02T05:59:45.192Z,18.51
2018-07-02T06:02:12.067Z,18.33
2018-07-02T06:04:38.955Z,18.33
2018-07-02T06:07:05.852Z,18.56
2018-07-02T06:09:32.731Z,19.02
2018-07-02T06:12:01.596Z,19.10
2018-07-02T06:14:28.478Z,18.89
2018-07-02T06:16:55.359Z,18.93
2018-07-02T06:19:22.243Z,18.97
2018-07-02T06:21:49.098Z,19.29
2018-07-02T06:24:15.958Z,19.34
2018-07-02T06:26:42.812Z,19.41
2018-07-02T06:29:09.665Z,19.76
2018-07-02T06:31:36.527Z,19.79
2018-07-02T06:34:03.387Z,19.58
2018-07-02T06:36:30.244Z,19.73
2018-07-02T06:38:57.115Z,19.83
2018-07-02T06:41:23.958Z,20.19
2018-07-02T06:43:50.898Z,19.89
2018-07-02T06:46:17.748Z,20.28
2018-07-02T06:48:44.615Z,20.20
2018-07-02T06:51:11.495Z,20.63
2018-07-02T06:53:38.355Z,20.32
2018-07-02T06:56:05.226Z,20.63
2018-07-02T06:58:32.843Z,20.30
2018-07-02T07:00:59.675Z,20.31
2018-07-02T07:03:26.548Z,20.48
2018-07-02T07:05:53.416Z,20.64
2018-07-02T07:08:20.279Z,20.78
2018-07-02T07:10:47.131Z,20.78
2018-07-02T07:13:14.027Z,21.13
2018-07-02T07:15:40.953Z,20.99
2018-07-02T07:18:07.750Z,21.14
2018-07-02T07:20:34.691Z,21.02
2018-07-02T07:23:01.636Z,20.92
2018-07-02T07:25:28.487Z,21.07
2018-07-02T07:27:55.339Z,21.09
2018-07-02T07:30:22.195Z,21.03
2018-07-02T07:32:49.052Z,20.90
2018-07-02T07:35:15.911Z,21.10
2018-07-02T07:37:42.772Z,21.14
2018-07-02T07:40:09.614Z,21.18
2018-07-02T07:42:36.463Z,21.34
2018-07-02T07:45:03.469Z,21.13
2018-07-02T07:47:30.420Z,21.28
2018-07-02T07:49:57.287Z,21.66
2018-07-02T07:52:24.139Z,21.63
2018-07-02T07:54:51.095Z,21.89
2018-07-02T07:57:17.966Z,22.22
2018-07-02T07:59:44.875Z,22.02
2018-07-02T08:02:11.743Z,22.11
2018-07-02T08:04:38.607Z,21.89
2018-07-02T08:07:05.561Z,21.99
2018-07-02T08:09:32.419Z,22.13
2018-07-02T08:11:59.292Z,22.36
2018-07-02T08:14:26.183Z,22.34
2018-07-02T08:16:53.051Z,22.57
2018-07-02T08:19:19.921Z,22.84
2018-07-02T08:21:47.235Z,22.61
2018-07-02T08:24:14.091Z,22.91
2018-07-02T08:26:40.939Z,23.09
2018-07-02T08:29:07.799Z,23.12
2018-07-02T08:31:34.657Z,22.72
2018-07-02T08:34:01.528Z,22.91
2018-07-02T08:36:28.412Z,22.97
2018-07-02T08:38:55.283Z,23.12
2018-07-02T08:41:22.153Z,23.50
2018-07-02T08:43:49.052Z,23.33
2018-07-02T08:46:15.927Z,23.50
2018-07-02T08:48:42.791Z,23.74
2018-07-02T08:51:09.647Z,23.96
2018-07-02T08:53:36.507Z,23.93
2018-07-02T08:56:03.380Z,24.22
2018-07-02T08:58:30.244Z,24.39
2018-07-02T09:00:57.104Z,24.36
2018-07-02T09:03:24.005Z,24.23
2018-07-02T09:05:50.867Z,23.92
2018-07-02T09:08:17.731Z,23.91
2018-07-02T09:10:44.607Z,24.37
2018-07-02T09:13:11.491Z,24.50
2018-07-02T09:15:38.352Z,24.53
2018-07-02T09:18:05.219Z,24.32
2018-07-02T09:20:32.088Z,24.54
2018-07-02T09:22:58.964Z,25.08
2018-07-02T09:25:25.816Z,25.33
2018-07-02T09:27:52.708Z,25.07
2018-07-02T09:30:19.568Z,24.58
2018-07-02T09:32:46.430Z,25.09
2018-07-02T09:35:13.315Z,25.51
2018-07-02T09:37:40.300Z,24.86
2018-07-02T09:40:07.191Z,25.28
2018-07-02T09:42:34.059Z,25.71
2018-07-02T09:45:00.920Z,25.91
2018-07-02T09:47:27.823Z,25.37
2018-07-02T09:49:54.691Z,25.62
2018-07-02T09:52:21.553Z,25.80
2018-07-02T09:54:48.420Z,25.75
2018-07-02T09:57:15.284Z,25.77
2018-07-02T10:11:09.871Z,24.99
2018-07-02T10:13:36.789Z,25.60
2018-07-02T10:16:03.673Z,25.43
2018-07-02T10:21:05.347Z,26.30
2018-07-02T10:23:37.331Z,25.98
2018-07-02T10:26:00.941Z,25.83
2018-07-02T10:28:27.753Z,25.91
2018-07-02T10:30:54.718Z,25.84
2018-07-02T10:33:21.518Z,25.75
2018-07-02T10:35:48.398Z,25.79
2018-07-02T10:38:15.279Z,25.50
2018-07-02T10:40:42.235Z,25.50
2018-07-02T10:43:09.123Z,25.80
2018-07-02T10:45:36.051Z,25.61
2018-07-02T10:48:02.973Z,25.75
2018-07-02T10:50:29.857Z,25.97
2018-07-02T10:52:56.833Z,25.56
2018-07-02T10:55:23.692Z,25.54
2018-07-02T10:57:50.608Z,25.82
2018-07-02T11:00:17.471Z,26.07
2018-07-02T11:02:44.340Z,26.49
2018-07-02T11:05:11.204Z,26.41
2018-07-02T11:07:38.104Z,26.90
2018-07-02T11:10:05.056Z,26.32
2018-07-02T11:12:31.951Z,25.87
2018-07-02T11:14:59.299Z,26.41
2018-07-02T11:17:26.156Z,26.64
2018-07-02T11:19:53.039Z,26.89
2018-07-02T11:22:19.911Z,26.98
2018-07-02T11:24:46.792Z,27.33
2018-07-02T11:27:13.661Z,26.95
2018-07-02T11:29:40.569Z,26.92
2018-07-02T11:32:07.428Z,26.72
2018-07-02T11:34:34.397Z,27.08
2018-07-02T11:37:01.340Z,26.74
2018-07-02T11:39:28.239Z,26.89
2018-07-02T11:41:55.128Z,26.93
2018-07-02T11:44:22.005Z,27.29
2018-07-02T11:46:48.888Z,27.34
2018-07-02T11:49:15.787Z,27.59
2018-07-02T11:51:42.728Z,27.62
2018-07-02T11:54:09.591Z,27.94
2018-07-02T11:56:36.472Z,28.14
2018-07-02T11:59:03.398Z,27.88
2018-07-02T12:01:30.344Z,26.97
2018-07-02T12:03:57.210Z,27.27
2018-07-02T12:06:24.148Z,27.72
2018-07-02T12:08:51.031Z,27.54
2018-07-02T12:11:17.915Z,27.76
2018-07-02T12:13:44.800Z,27.57
2018-07-02T12:16:11.706Z,27.68
2018-07-02T12:18:38.579Z,27.47
2018-07-02T12:21:05.591Z,27.70
2018-07-02T12:23:32.472Z,27.73
2018-07-02T12:26:02.603Z,27.71
2018-07-02T12:28:29.537Z,27.66
2018-07-02T12:30:57.213Z,27.75
2018-07-02T12:33:24.201Z,27.79
2018-07-02T12:35:51.131Z,27.46
2018-07-02T12:38:18.016Z,27.58
2018-07-02T12:40:44.880Z,27.75
2018-07-02T12:43:11.892Z,27.40
2018-07-02T12:45:38.777Z,27.62
2018-07-02T12:48:05.661Z,28.01
2018-07-02T12:50:32.696Z,27.96
2018-07-02T12:52:59.583Z,27.82
2018-07-02T12:55:26.508Z,27.98
2018-07-02T12:57:53.379Z,28.06
2018-07-02T13:00:20.269Z,28.03
2018-07-02T13:02:47.136Z,28.18
2018-07-02T13:05:14.028Z,28.37
2018-07-02T13:07:40.907Z,28.41
2018-07-02T13:10:07.876Z,28.57
2018-07-02T13:12:34.832Z,28.71
2018-07-02T13:15:01.696Z,28.59
2018-07-02T13:17:28.599Z,28.64
2018-07-02T13:19:55.567Z,28.62
2018-07-02T13:22:22.467Z,28.37
2018-07-02T13:24:49.822Z,28.44
2018-07-02T13:27:16.701Z,28.32
2018-07-02T13:29:43.578Z,28.68
2018-07-02T13:32:11.749Z,28.58
2018-07-02T13:34:38.650Z,28.58
2018-07-02T13:37:06.711Z,28.23
2018-07-02T13:39:33.827Z,28.55
2018-07-02T13:42:00.740Z,28.86
2018-07-02T13:44:27.621Z,28.50
2018-07-02T13:46:54.523Z,28.31
2018-07-02T13:49:21.379Z,28.47
2018-07-02T13:51:48.294Z,28.41
2018-07-02T13:54:15.151Z,28.37
2018-07-02T13:56:42.057Z,28.14
2018-07-02T13:59:08.980Z,28.49
2018-07-02T14:01:35.870Z,28.43
2018-07-02T14:04:02.748Z,28.52
2018-07-02T14:06:29.656Z,28.48
2018-07-02T14:08:56.519Z,28.29
2018-07-02T14:11:23.397Z,28.54
2018-07-02T14:13:50.278Z,28.47
2018-07-02T14:16:17.578Z,28.61
2018-07-02T14:18:44.550Z,28.40
2018-07-02T14:21:11.453Z,28.69
2018-07-02T14:23:38.372Z,29.02
2018-07-02T14:26:05.383Z,28.91
2018-07-02T14:28:32.263Z,28.72
2018-07-02T14:30:59.159Z,28.68
2018-07-02T14:33:26.048Z,29.09
2018-07-02T14:35:53.012Z,29.41
2018-07-02T14:38:19.939Z,29.73
2018-07-02T14:40:46.816Z,30.21
2018-07-02T14:43:13.777Z,31.37
2018-07-02T14:45:40.671Z,32.19
2018-07-02T14:48:07.551Z,32.43
2018-07-02T14:50:34.461Z,31.54
2018-07-02T14:53:01.343Z,31.72
2018-07-02T14:55:28.196Z,32.69
2018-07-02T14:57:55.109Z,32.93
2018-07-02T15:00:21.980Z,33.08
2018-07-02T15:02:49.951Z,32.58
2018-07-02T15:05:16.830Z,33.44
2018-07-02T15:07:44.207Z,33.00
2018-07-02T15:10:11.076Z,33.36
2018-07-02T15:12:37.956Z,33.71
2018-07-02T15:15:04.989Z,33.64
2018-07-02T15:17:31.964Z,32.81
2018-07-02T15:19:58.912Z,32.28
2018-07-02T15:22:25.792Z,33.28
2018-07-02T15:24:52.695Z,34.34
2018-07-02T15:27:20.567Z,33.29
2018-07-02T15:29:47.525Z,33.55
2018-07-02T15:32:14.492Z,32.77
2018-07-02T15:34:41.449Z,33.35
2018-07-02T15:37:08.320Z,33.17
2018-07-02T15:39:35.261Z,33.82
2018-07-02T15:42:02.082Z,34.40
2018-07-02T15:44:28.975Z,35.17
2018-07-02T15:46:55.858Z,35.78
2018-07-02T15:49:22.713Z,36.41
2018-07-02T15:51:49.615Z,36.91
2018-07-02T15:54:16.609Z,35.05
2018-07-02T15:56:43.336Z,34.12
2018-07-02T15:59:10.199Z,34.74
2018-07-02T16:01:37.059Z,34.77
2018-07-02T16:04:03.991Z,34.67
2018-07-02T16:06:30.845Z,34.74
2018-07-02T16:08:57.719Z,34.30
2018-07-02T16:11:24.604Z,34.55
2018-07-02T16:13:51.543Z,34.39
2018-07-02T16:16:18.511Z,33.53
2018-07-02T16:18:45.397Z,34.56
2018-07-02T16:21:12.296Z,33.85
2018-07-02T16:23:39.162Z,33.89
2018-07-02T16:26:06.054Z,33.95
2018-07-02T16:28:32.986Z,33.93
2018-07-02T16:30:59.859Z,34.48
2018-07-02T16:33:26.719Z,35.28
2018-07-02T16:35:53.627Z,35.42
2018-07-02T16:38:20.843Z,34.82
2018-07-02T16:40:47.727Z,35.03
2018-07-02T16:43:14.600Z,35.43
2018-07-02T16:45:41.524Z,35.51
2018-07-02T16:48:08.431Z,35.44
2018-07-02T16:50:35.397Z,34.99
2018-07-02T16:53:02.464Z,35.37
2018-07-02T16:55:29.403Z,35.22
2018-07-02T16:57:56.316Z,34.67
2018-07-02T17:00:23.227Z,34.94
2018-07-02T17:02:50.164Z,34.02
2018-07-02T17:05:17.032Z,34.75
2018-07-02T17:07:43.975Z,35.20
2018-07-02T17:10:10.840Z,34.69
2018-07-02T17:12:37.748Z,34.58
2018-07-02T17:15:05.043Z,34.55
2018-07-02T17:17:31.938Z,34.93
2018-07-02T17:19:58.808Z,35.64
2018-07-02T17:22:25.752Z,35.09
2018-07-02T17:24:52.663Z,34.19
2018-07-02T17:27:19.560Z,35.42
2018-07-02T17:29:46.508Z,34.46
2018-07-02T17:32:13.428Z,35.16
2018-07-02T17:34:40.380Z,35.56
2018-07-02T17:37:07.258Z,35.08
2018-07-02T17:39:34.188Z,34.34
2018-07-02T17:42:01.100Z,34.70
2018-07-02T17:44:27.939Z,33.92
2018-07-02T17:46:54.924Z,34.57
2018-07-02T17:49:21.790Z,34.47
2018-07-02T17:51:48.667Z,34.18
2018-07-02T17:54:15.543Z,33.29
2018-07-02T17:56:42.444Z,32.89
2018-07-02T17:59:09.359Z,33.11
2018-07-02T18:01:36.198Z,33.29
2018-07-02T18:04:03.086Z,34.07
2018-07-02T18:06:29.968Z,33.53
2018-07-02T18:08:56.888Z,34.26
2018-07-02T18:11:23.748Z,34.41
2018-07-02T18:13:50.630Z,34.33
2018-07-02T18:16:17.970Z,33.81
2018-07-02T18:18:47.850Z,33.96
2018-07-02T18:21:14.715Z,34.22
2018-07-02T18:23:41.675Z,33.79
2018-07-02T18:26:08.562Z,33.14
2018-07-02T18:28:35.594Z,33.06
2018-07-02T18:31:02.468Z,32.55
2018-07-02T18:33:29.338Z,31.93
2018-07-02T18:35:56.267Z,31.81
2018-07-02T18:38:23.160Z,30.88
2018-07-02T18:40:50.208Z,29.55
2018-07-02T18:43:17.172Z,28.33
2018-07-02T18:45:44.056Z,27.39
2018-07-02T18:48:10.939Z,26.58
2018-07-02T18:50:37.820Z,26.24
2018-07-02T18:53:04.701Z,25.90
2018-07-02T18:55:31.574Z,25.58
2018-07-02T18:57:58.443Z,25.42
2018-07-02T19:00:25.318Z,25.06
2018-07-02T19:02:52.206Z,24.84
2018-07-02T19:05:19.086Z,24.70
2018-07-02T19:07:46.015Z,24.57
2018-07-02T19:10:13.030Z,24.40
2018-07-02T19:12:39.964Z,24.24
2018-07-02T19:15:07.155Z,24.10
2018-07-02T19:17:34.880Z,23.96
2018-07-02T19:20:01.796Z,23.84
2018-07-02T19:22:28.659Z,23.67
2018-07-02T19:24:55.527Z,23.50
2018-07-02T19:27:22.387Z,23.27
2018-07-02T19:29:49.352Z,23.09
2018-07-02T19:32:16.446Z,22.96
2018-07-02T19:34:43.617Z,22.88
2018-07-02T19:37:10.556Z,22.79
2018-07-02T19:39:37.511Z,22.79
2018-07-02T19:42:04.420Z,22.78
2018-07-02T19:44:31.344Z,22.65
2018-07-02T19:46:58.211Z,22.65
2018-07-02T19:49:25.129Z,22.51
2018-07-02T19:51:52.663Z,22.58
2018-07-02T19:54:20.101Z,22.47
2018-07-02T19:56:46.987Z,22.45
2018-07-02T19:59:13.851Z,22.37
2018-07-02T20:01:40.751Z,22.19
2018-07-02T20:04:07.666Z,22.11
2018-07-02T20:06:34.604Z,22.06
2018-07-02T20:09:03.372Z,21.92
2018-07-02T20:11:30.239Z,21.88
2018-07-02T20:13:57.219Z,21.81
2018-07-02T20:16:24.175Z,21.68
2018-07-02T20:18:51.053Z,21.59
2018-07-02T20:21:17.919Z,21.49
2018-07-02T20:23:44.959Z,21.57
2018-07-02T20:26:12.152Z,21.50
2018-07-02T20:28:39.116Z,21.48
2018-07-02T20:31:06.706Z,21.50
2018-07-02T20:33:35.571Z,21.90
2018-07-02T20:36:06.267Z,21.37
2018-07-02T20:38:33.177Z,21.18
2018-07-02T20:41:00.108Z,20.97
2018-07-02T20:43:27.005Z,21.03
2018-07-02T20:45:53.920Z,21.45
2018-07-02T20:48:20.981Z,21.09
2018-07-02T20:50:47.896Z,21.02
2018-07-02T20:53:14.763Z,21.02
2018-07-02T20:55:41.669Z,21.39
2018-07-02T20:58:09.471Z,21.05
2018-07-02T21:00:36.332Z,20.82
2018-07-02T21:03:03.260Z,20.58
2018-07-02T21:05:30.483Z,20.46
2018-07-02T21:07:57.607Z,20.38
2018-07-02T21:10:24.574Z,20.38
2018-07-02T21:12:51.383Z,20.31
2018-07-02T21:15:18.247Z,20.08
2018-07-02T21:17:45.117Z,20.50
2018-07-02T21:20:11.994Z,19.97
2018-07-02T21:22:38.883Z,19.77
2018-07-02T21:25:05.811Z,19.77
2018-07-02T21:27:32.667Z,19.61
2018-07-02T21:30:02.418Z,19.57
2018-07-02T21:32:29.290Z,19.44
2018-07-02T21:34:56.219Z,19.49
2018-07-02T21:37:23.083Z,19.61
2018-07-02T21:39:49.941Z,19.53
2018-07-02T21:42:16.998Z,19.46
2018-07-02T21:44:43.724Z,19.04
2018-07-02T21:47:10.596Z,18.65
2018-07-02T21:49:37.466Z,18.53
2018-07-02T21:52:04.323Z,18.41
2018-07-02T21:54:31.259Z,18.53
2018-07-02T21:56:58.111Z,18.57
2018-07-02T21:59:25.819Z,18.65
2018-07-02T22:01:52.729Z,18.59
2018-07-02T22:04:19.639Z,18.52
2018-07-02T22:06:46.835Z,18.54
2018-07-02T22:09:16.768Z,18.49
2018-07-02T22:11:43.625Z,18.47
2018-07-02T22:14:10.488Z,18.36
2018-07-02T22:16:37.367Z,18.27
2018-07-02T22:19:06.548Z,18.07
2018-07-02T22:21:33.488Z,17.88
2018-07-02T22:24:00.348Z,17.78
2018-07-02T22:26:31.279Z,17.78
2018-07-02T22:28:58.504Z,17.73
2018-07-02T22:31:27.384Z,17.64
2018-07-02T22:33:54.259Z,17.61
2018-07-02T22:36:21.141Z,17.54
2018-07-02T22:38:48.027Z,17.69
2018-07-02T22:41:14.963Z,17.93
2018-07-02T22:43:41.871Z,17.68
2018-07-02T22:46:08.707Z,17.55
2018-07-02T22:48:35.576Z,17.52
2018-07-02T22:51:02.427Z,17.60
2018-07-02T22:53:29.308Z,17.35
2018-07-02T22:55:58.482Z,17.30
2018-07-02T22:58:25.367Z,17.70
2018-07-02T23:00:52.340Z,17.29
2018-07-02T23:03:19.151Z,17.12
2018-07-02T23:05:46.035Z,17.46
2018-07-02T23:08:12.976Z,17.17
2018-07-02T23:10:39.861Z,17.12
2018-07-02T23:13:06.731Z,17.43
2018-07-02T23:15:33.619Z,16.97
2018-07-02T23:18:00.527Z,17.31
2018-07-02T23:20:27.459Z,16.98
2018-07-02T23:22:59.750Z,16.99
2018-07-02T23:25:27.436Z,16.97
2018-07-02T23:27:55.125Z,16.85
2018-07-02T23:30:22.035Z,16.77
2018-07-02T23:32:49.267Z,16.62
2018-07-02T23:35:16.879Z,16.59
2018-07-02T23:37:43.751Z,16.58
2018-07-02T23:40:10.656Z,16.59
2018-07-02T23:42:37.516Z,16.75
2018-07-02T23:45:04.379Z,16.62
2018-07-02T23:47:31.253Z,16.63
2018-07-02T23:49:58.119Z,16.66
2018-07-02T23:52:25.072Z,16.69
2018-07-02T23:54:51.965Z,16.72
2018-07-02T23:57:18.835Z,16.65
2018-07-02T23:59:45.699Z,16.63
